Startpagina
METAR-TAF:

METAR-TAF

Vliegvelden :

Lleida-Alguaire

Lleida, Spanje

breedte: 41-43-40N, lengte: 000-32-09E, hoogte: 350 m

Actueel weer

Dit bericht is 17 minuten geleden gemaakt, om 21:00 UTC
Wind 4 kt uit het oostnoordoosten
Temperatuur 7°C
Vochtigheid 93%
Druk 1031 hPa
Zicht: 7000 m

METAR: LEDA 232100Z AUTO 06004KT 7000 NCD 07/06 Q1031

Tijdstip: 22:17 (21:17 UTC)


TAF: ontbreekt

Waarnemingen en weersverwachtingen van meer dan 4000 vliegvelden (METAR en TAF).

De beschikbare stations zijn de gele en rode punten op de kaart.

Ga met uw muis naar het station om de naam te zien.

Klik dan om waarnemingen en weersverwachtingen te zien.

kaart wijzigen: klik op de groene knoppen met een zwart kruis om in te zoomen, op de groene knop met een streepje om uit te zoomen of op de groene pijlen voor aangrenzende kaarten.


METAR-TAF: